Time;durP1;ratioP1;P1;durP2;ratioP2;P2;SDS_P1;SDS_P2;PMS_P1;PMS_P2;Temp;Humidity;BMP_temperature;BMP_pressure;BME280_temperature;BME280_humidity;BME280_pressure;Samples;Min_cycle;Max_cycle;Signal;HPM_P1;HPM_P2
2022/06/10 00:01:16;;;;;;;1.38;0.70;;;;;;;13.16;81.87;101366.84;5018572;28;20498;-81
2022/06/10 00:03:43;;;;;;;1.98;1.05;;;;;;;13.15;82.02;101369.50;5035555;28;20412;-81
2022/06/10 00:06:12;;;;;;;2.55;1.30;;;;;;;13.12;81.97;101369.53;5021859;28;20045;-81
2022/06/10 00:08:44;;;;;;;1.30;1.20;;;;;;;13.10;82.14;101360.75;5013401;28;20056;-82
2022/06/10 00:11:13;;;;;;;3.72;1.60;;;;;;;13.08;82.97;101371.31;5017076;28;20046;-79
2022/06/10 00:13:43;;;;;;;3.50;1.67;;;;;;;13.07;82.05;101366.91;5004304;28;20132;-82
2022/06/10 00:16:11;;;;;;;1.75;1.65;;;;;;;13.05;82.99;101366.06;5020929;28;20038;-81
2022/06/10 00:18:40;;;;;;;4.97;1.95;;;;;;;13.04;82.52;101367.81;5014953;28;20056;-81
2022/06/10 00:21:11;;;;;;;2.30;1.90;;;;;;;13.00;82.88;101367.88;5014967;28;20125;-81
2022/06/10 00:23:37;;;;;;;5.40;1.65;;;;;;;12.97;83.20;101370.50;5031896;28;20389;-80
2022/06/10 00:26:05;;;;;;;3.30;1.38;;;;;;;12.91;83.26;101372.28;5007372;28;20471;-83
2022/06/10 00:28:32;;;;;;;1.75;1.23;;;;;;;12.88;83.70;101372.31;5004375;28;20050;-81
2022/06/10 00:30:59;;;;;;;2.92;2.05;;;;;;;12.85;83.72;101380.25;5019990;28;20050;-82
2022/06/10 00:33:26;;;;;;;5.13;1.20;;;;;;;12.83;84.08;101381.13;5006222;28;20054;-82
2022/06/10 00:35:53;;;;;;;7.82;1.70;;;;;;;12.82;84.24;101382.00;5013180;28;20113;-82
2022/06/10 00:38:20;;;;;;;5.35;1.70;;;;;;;12.80;84.55;101379.38;5015331;28;20050;-81
2022/06/10 00:40:55;;;;;;;2.20;1.25;;;;;;;12.78;84.62;101380.28;5011226;28;20090;-82
2022/06/10 00:43:26;;;;;;;3.95;1.25;;;;;;;12.74;84.77;101377.66;5023315;28;20661;-82
2022/06/10 00:46:02;;;;;;;1.77;1.63;;;;;;;12.74;85.16;101382.06;5007055;28;20049;-82
2022/06/10 00:48:49;;;;;;;8.23;2.80;;;;;;;12.71;85.23;101389.94;5014978;28;20055;-81
2022/06/10 00:51:28;;;;;;;3.58;1.33;;;;;;;12.69;85.51;101396.97;5020459;28;20069;-80
2022/06/10 00:54:26;;;;;;;4.45;1.40;;;;;;;12.68;85.79;101403.97;5021561;28;20048;-80
2022/06/10 00:57:03;;;;;;;2.22;1.48;;;;;;;12.67;85.71;101389.09;5012671;28;20053;-80
2022/06/10 00:59:42;;;;;;;2.53;1.42;;;;;;;12.63;85.83;101402.25;5021888;28;20413;-81
2022/06/10 01:02:20;;;;;;;4.65;1.50;;;;;;;12.62;85.73;101395.25;5023494;28;20074;-81
2022/06/10 01:04:48;;;;;;;4.90;1.55;;;;;;;12.57;86.10;101404.03;5001691;28;20050;-81
2022/06/10 01:07:20;;;;;;;2.83;1.40;;;;;;;12.53;86.25;101401.44;5016260;28;20064;-82
2022/06/10 01:09:49;;;;;;;6.82;1.67;;;;;;;12.50;86.67;101406.69;5015460;28;20143;-84
2022/06/10 01:12:53;;;;;;;5.30;1.65;;;;;;;12.46;87.22;101413.69;5030410;28;20149;-80
2022/06/10 01:15:52;;;;;;;1.80;1.38;;;;;;;12.41;87.13;101410.22;5021747;28;20046;-80
2022/06/10 01:18:31;;;;;;;3.70;2.10;;;;;;;12.38;87.49;101405.88;5007078;28;20038;-82
2022/06/10 01:22:00;;;;;;;6.80;1.50;;;;;;;12.35;87.82;101403.25;5027901;28;20075;-82
2022/06/10 01:25:26;;;;;;;4.60;1.45;;;;;;;12.32;87.92;101402.38;4972973;28;20057;-81
2022/06/10 01:28:46;;;;;;;7.10;2.13;;;;;;;12.26;88.08;101407.69;5040813;28;20087;-81
2022/06/10 01:31:29;;;;;;;8.02;1.05;;;;;;;12.23;88.26;101405.94;5013408;28;20046;-80
2022/06/10 01:34:07;;;;;;;3.83;2.17;;;;;;;12.21;88.87;101415.56;5018913;28;20056;-82
2022/06/10 01:36:53;;;;;;;3.40;1.35;;;;;;;12.19;88.56;101415.56;5015214;28;20395;-82
2022/06/10 01:39:55;;;;;;;3.63;1.80;;;;;;;12.18;88.88;101418.22;4997735;28;20045;-80
2022/06/10 01:42:33;;;;;;;3.58;1.42;;;;;;;12.19;88.92;101422.56;5019044;28;20088;-81
2022/06/10 01:45:21;;;;;;;5.93;1.80;;;;;;;12.21;88.90;101415.56;5009709;28;20050;-82
2022/06/10 01:48:01;;;;;;;3.38;1.58;;;;;;;12.26;88.66;101420.81;5023804;28;20110;-81
2022/06/10 01:50:51;;;;;;;1.42;1.33;;;;;;;12.30;88.66;101420.78;5031935;28;20087;-81
2022/06/10 01:53:31;;;;;;;5.68;1.35;;;;;;;12.36;87.94;101417.28;5020928;28;20150;-82
2022/06/10 01:56:21;;;;;;;1.85;1.75;;;;;;;12.37;87.53;101417.25;5004779;28;20123;-82
2022/06/10 01:59:31;;;;;;;2.17;1.60;;;;;;;12.38;87.70;101418.13;5018863;28;20067;-83
2022/06/10 02:02:05;;;;;;;2.88;1.90;;;;;;;12.39;87.44;101417.25;5000183;28;20108;-83
2022/06/10 02:04:41;;;;;;;3.33;1.45;;;;;;;12.37;87.16;101412.00;5036502;28;20056;-82
2022/06/10 02:07:18;;;;;;;4.68;1.90;;;;;;;12.35;87.20;101419.00;5032589;28;20047;-83
2022/06/10 02:09:52;;;;;;;2.85;1.17;;;;;;;12.33;87.63;101414.63;5028665;28;20053;-81
2022/06/10 02:12:24;;;;;;;;;;;;;;;12.29;88.25;101420.78;5003462;28;20048;-82
2022/06/10 02:15:00;;;;;;;3.03;1.92;;;;;;;12.22;88.01;101423.44;5009230;28;19936;-82
2022/06/10 02:17:44;;;;;;;3.70;1.17;;;;;;;12.20;88.37;101425.19;5019002;28;20049;-81
2022/06/10 02:20:23;;;;;;;2.05;1.80;;;;;;;12.16;88.32;101423.47;5014528;28;20139;-81
2022/06/10 02:22:50;;;;;;;5.38;1.35;;;;;;;12.10;88.63;101423.47;5005938;28;20060;-81
2022/06/10 02:25:25;;;;;;;3.92;1.42;;;;;;;12.04;89.33;101434.00;5016010;28;20053;-81
2022/06/10 02:28:00;;;;;;;6.05;1.70;;;;;;;12.01;89.78;101427.00;5017304;28;20111;-81
2022/06/10 02:30:52;;;;;;;5.20;1.83;;;;;;;12.02;89.43;101435.72;5016265;28;20103;-83
2022/06/10 02:33:19;;;;;;;4.53;1.52;;;;;;;12.04;89.55;101434.00;5004122;28;20547;-81
2022/06/10 02:36:00;;;;;;;4.50;1.60;;;;;;;12.03;89.49;101433.13;5009202;28;20049;-80
2022/06/10 02:38:49;;;;;;;3.58;1.90;;;;;;;12.00;90.01;101435.72;5020039;28;20052;-82
2022/06/10 02:41:29;;;;;;;3.65;1.50;;;;;;;11.97;89.88;101433.13;5003716;28;20087;-83
2022/06/10 02:44:13;;;;;;;4.50;1.92;;;;;;;11.95;90.74;101432.25;5034953;28;20048;-81
2022/06/10 02:46:48;;;;;;;5.80;3.55;;;;;;;11.94;91.16;101437.47;5005985;28;20066;-81
2022/06/10 02:49:18;;;;;;;3.05;2.15;;;;;;;11.95;91.23;101439.22;5005146;28;20073;-80
2022/06/10 02:51:51;;;;;;;4.60;2.08;;;;;;;11.95;91.54;101445.38;5018650;28;20107;-80
2022/06/10 02:54:30;;;;;;;3.33;2.20;;;;;;;11.96;91.44;101443.63;5000134;28;20057;-80
2022/06/10 02:57:01;;;;;;;7.40;2.38;;;;;;;11.95;91.73;101449.72;5021570;28;20048;-81
2022/06/10 03:02:50;;;;;;;;;;;;;;;11.89;92.64;101446.22;5010607;28;20037;-80
2022/06/10 03:05:49;;;;;;;4.38;2.40;;;;;;;11.83;92.82;101451.47;5018046;28;19976;-80
2022/06/10 03:09:01;;;;;;;5.65;2.80;;;;;;;11.75;93.37;101448.00;5016116;28;20116;-80
2022/06/10 03:11:56;;;;;;;4.28;3.30;;;;;;;11.69;94.13;101454.13;4960467;28;20051;-81
2022/06/10 03:14:43;;;;;;;2.78;2.00;;;;;;;11.66;94.32;101454.13;4945806;28;20055;-80
2022/06/10 03:17:33;;;;;;;10.88;2.88;;;;;;;11.61;94.75;101452.38;5008909;28;20050;-81
2022/06/10 03:20:26;;;;;;;3.75;2.08;;;;;;;11.56;94.86;101458.50;5013716;28;20042;-82
2022/06/10 03:23:22;;;;;;;7.88;2.20;;;;;;;11.51;95.14;101460.25;5015970;28;20056;-82
2022/06/10 03:25:53;;;;;;;3.80;3.08;;;;;;;11.50;95.13;101462.84;5014673;28;20058;-82
2022/06/10 03:28:43;;;;;;;6.88;3.25;;;;;;;11.49;95.57;101450.63;5006334;28;20053;-83
2022/06/10 03:31:30;;;;;;;6.60;3.30;;;;;;;11.47;95.94;101458.50;5017101;28;20045;-81
2022/06/10 03:34:22;;;;;;;6.18;2.50;;;;;;;11.47;96.27;101461.13;5004944;28;20624;-80
2022/06/10 03:36:50;;;;;;;3.78;2.22;;;;;;;11.45;96.39;101465.50;5011421;28;20042;-82
2022/06/10 03:39:22;;;;;;;6.00;3.30;;;;;;;11.45;97.06;101465.50;4997478;28;20049;-81
2022/06/10 03:42:25;;;;;;;6.82;3.25;;;;;;;11.44;97.24;101474.22;5013847;28;20056;-83
2022/06/10 03:44:56;;;;;;;5.80;3.22;;;;;;;11.46;97.01;101475.13;5017033;28;20060;-84
2022/06/10 03:47:30;;;;;;;3.67;2.70;;;;;;;11.44;97.03;101473.38;5017104;28;20046;-82
2022/06/10 03:50:08;;;;;;;7.90;3.28;;;;;;;11.46;97.46;101479.47;5013568;28;20088;-82
2022/06/10 03:52:38;;;;;;;4.38;2.63;;;;;;;11.47;96.95;101478.59;5032960;28;21166;-82
2022/06/10 03:55:09;;;;;;;5.47;3.03;;;;;;;11.49;97.17;101480.34;5002807;28;20103;-81
2022/06/10 03:57:37;;;;;;;6.07;3.00;;;;;;;11.54;97.15;101486.47;5013780;28;20044;-83
2022/06/10 04:00:07;;;;;;;4.32;2.80;;;;;;;11.59;97.90;101491.72;5004648;28;20384;-80
2022/06/10 04:02:33;;;;;;;6.57;2.90;;;;;;;11.64;97.31;101487.34;5008279;28;20451;-80
2022/06/10 04:05:00;;;;;;;4.82;3.30;;;;;;;11.70;97.17;101496.97;5009100;28;20052;-79
2022/06/10 04:07:27;;;;;;;3.50;3.22;;;;;;;11.77;97.70;101493.44;5017308;28;20052;-81
2022/06/10 04:09:56;;;;;;;3.85;3.20;;;;;;;11.84;97.84;101499.59;5020610;28;20053;-79
2022/06/10 04:12:25;;;;;;;6.00;3.10;;;;;;;11.90;97.31;101492.59;5019364;28;20061;-80
2022/06/10 04:14:52;;;;;;;6.72;2.97;;;;;;;11.95;97.81;101496.94;5026563;28;20068;-83
2022/06/10 04:17:19;;;;;;;10.18;3.22;;;;;;;12.01;96.88;101503.09;5005303;28;20046;-80
2022/06/10 04:19:45;;;;;;;5.15;3.17;;;;;;;12.07;97.27;101508.34;5001089;28;20057;-81
2022/06/10 04:22:12;;;;;;;3.15;2.58;;;;;;;12.14;96.82;101498.69;5012859;28;20120;-81
2022/06/10 04:24:39;;;;;;;5.03;3.85;;;;;;;12.19;96.97;101494.31;5017573;28;20057;-81
2022/06/10 04:27:08;;;;;;;7.53;3.20;;;;;;;12.23;96.60;101496.06;5024595;28;20633;-83
2022/06/10 04:29:46;;;;;;;4.18;3.78;;;;;;;12.30;97.15;101498.66;5006664;28;20136;-80
2022/06/10 04:32:14;;;;;;;6.68;3.25;;;;;;;12.37;96.73;101508.25;5021562;28;20045;-83
2022/06/10 04:34:41;;;;;;;3.42;3.10;;;;;;;12.44;96.67;101510.00;5015116;28;20540;-81
2022/06/10 04:37:07;;;;;;;5.38;2.95;;;;;;;12.52;96.27;101512.63;5021085;28;20095;-83
2022/06/10 04:39:34;;;;;;;6.18;3.00;;;;;;;12.61;96.17;101506.47;5015929;28;20046;-81
2022/06/10 04:42:01;;;;;;;6.40;2.90;;;;;;;12.71;96.07;101521.28;5014864;28;20050;-83
2022/06/10 04:44:27;;;;;;;5.50;3.17;;;;;;;12.78;95.86;101514.28;5005266;28;20069;-83
2022/06/10 04:46:59;;;;;;;5.97;3.35;;;;;;;12.86;95.33;101515.97;5019348;28;20045;-81
2022/06/10 04:49:25;;;;;;;8.05;3.80;;;;;;;12.96;95.43;101511.56;5013975;28;20133;-81
2022/06/10 04:51:52;;;;;;;8.77;5.90;;;;;;;13.08;95.17;101515.88;5000970;28;20397;-81
2022/06/10 04:54:19;;;;;;;7.00;4.10;;;;;;;13.16;94.89;101508.81;5014510;28;20673;-81
2022/06/10 04:56:45;;;;;;;7.05;5.38;;;;;;;13.24;94.82;101514.00;5018034;28;20048;-81
2022/06/10 04:59:12;;;;;;;5.70;4.18;;;;;;;13.33;94.86;101523.59;5019513;28;20072;-82
2022/06/10 05:01:39;;;;;;;9.65;5.82;;;;;;;13.39;95.14;101527.09;5020701;28;20111;-81
2022/06/10 05:04:06;;;;;;;7.47;5.40;;;;;;;13.46;94.92;101530.56;5003814;28;20057;-82
2022/06/10 05:06:32;;;;;;;10.45;6.13;;;;;;;13.53;95.32;101537.53;5016861;28;20076;-81
2022/06/10 05:09:04;;;;;;;7.57;5.55;;;;;;;13.61;95.02;101534.84;5018583;28;20116;-82
2022/06/10 05:11:31;;;;;;;6.55;5.75;;;;;;;13.68;94.38;101528.66;5017766;28;20077;-81
2022/06/10 05:13:58;;;;;;;7.30;5.68;;;;;;;13.74;94.21;101525.13;5022023;28;20064;-81
2022/06/10 05:16:30;;;;;;;10.50;6.28;;;;;;;13.79;94.15;101531.19;5022947;28;20103;-81
2022/06/10 05:18:57;;;;;;;9.95;6.30;;;;;;;13.85;93.87;101527.66;5019451;28;20892;-84
2022/06/10 05:21:24;;;;;;;10.30;7.78;;;;;;;13.89;93.63;101521.47;5025047;28;20046;-83
2022/06/10 05:23:51;;;;;;;8.57;6.13;;;;;;;13.93;93.39;101523.19;5022085;28;20127;-81
2022/06/10 05:26:18;;;;;;;10.90;5.30;;;;;;;13.97;93.11;101537.19;5019559;28;20057;-81
2022/06/10 05:28:46;;;;;;;10.13;4.90;;;;;;;14.01;93.19;101533.63;4997384;28;20045;-82
2022/06/10 05:31:13;;;;;;;7.47;6.18;;;;;;;14.08;92.65;101537.97;5020034;28;20132;-83
2022/06/10 05:36:23;;;;;;;10.77;5.82;;;;;;;14.19;92.37;101532.59;5020659;28;20096;-82
2022/06/10 05:38:51;;;;;;;10.20;6.43;;;;;;;14.24;91.54;101536.06;5040173;28;20051;-80
2022/06/10 05:44:02;;;;;;;12.55;8.57;;;;;;;14.31;91.11;101540.34;5010986;28;20040;-80
2022/06/10 05:46:28;;;;;;;9.98;7.78;;;;;;;14.36;91.12;101540.31;5012008;28;20070;-82
2022/06/10 05:48:55;;;;;;;17.42;8.55;;;;;;;14.41;90.73;101540.28;4989002;28;20077;-84
2022/06/10 05:51:22;;;;;;;8.65;7.07;;;;;;;14.45;90.32;101552.53;4993817;28;20041;-84
2022/06/10 05:53:48;;;;;;;8.10;5.93;;;;;;;14.47;90.46;101551.63;5012044;28;20060;-83
2022/06/10 05:56:15;;;;;;;16.40;5.97;;;;;;;14.52;90.07;101549.81;5018016;28;20045;-81
2022/06/10 05:58:43;;;;;;;11.13;7.80;;;;;;;14.61;89.49;101545.31;5004651;28;20117;-81
2022/06/10 06:01:10;;;;;;;8.35;5.50;;;;;;;14.68;89.09;101547.91;5004911;28;20127;-80
2022/06/10 06:03:37;;;;;;;9.32;5.95;;;;;;;14.76;88.50;101546.94;5034043;28;20475;-81
2022/06/10 06:06:04;;;;;;;16.63;6.97;;;;;;;14.79;88.72;101549.53;5010012;28;20544;-80
2022/06/10 06:08:31;;;;;;;9.98;5.70;;;;;;;14.86;88.94;101551.19;5024930;28;20071;-83
2022/06/10 06:10:58;;;;;;;8.50;5.28;;;;;;;14.95;87.89;101544.94;5011810;28;20125;-81
2022/06/10 06:13:25;;;;;;;9.27;5.80;;;;;;;15.01;87.24;101548.38;5022642;28;20112;-80
2022/06/10 06:15:51;;;;;;;16.42;6.28;;;;;;;15.08;86.80;101554.44;5006149;28;20184;-81
2022/06/10 06:18:18;;;;;;;10.57;5.18;;;;;;;15.15;86.04;101555.25;5019912;28;20045;-82
2022/06/10 06:20:44;;;;;;;5.50;4.75;;;;;;;15.19;85.75;101551.66;5021845;28;20466;-82
2022/06/10 06:23:11;;;;;;;8.07;4.78;;;;;;;15.24;84.61;101554.22;5018205;28;20372;-80
2022/06/10 06:25:38;;;;;;;5.60;4.45;;;;;;;15.29;84.34;101557.66;5021556;28;20045;-81
2022/06/10 06:28:06;;;;;;;7.15;4.60;;;;;;;15.32;83.56;101555.00;5003132;28;20459;-80
2022/06/10 06:30:36;;;;;;;17.27;6.32;;;;;;;15.36;83.19;101546.16;5026389;28;20164;-80
2022/06/10 06:33:07;;;;;;;10.90;4.60;;;;;;;15.45;81.91;101545.13;5020709;28;20049;-81
2022/06/10 06:35:37;;;;;;;11.10;4.90;;;;;;;15.52;81.16;101544.16;5023739;28;20044;-80
2022/06/10 06:38:05;;;;;;;6.45;3.95;;;;;;;15.61;80.94;101553.69;5019808;28;20038;-81
2022/06/10 06:40:33;;;;;;;8.48;4.82;;;;;;;15.72;80.14;101546.47;5016818;28;20056;-81
2022/06/10 06:43:00;;;;;;;9.60;4.75;;;;;;;15.82;79.35;101552.50;5013836;28;20471;-81
2022/06/10 06:45:27;;;;;;;8.30;4.60;;;;;;;15.92;78.45;101551.47;5011585;28;20049;-81
2022/06/10 06:47:53;;;;;;;9.13;4.78;;;;;;;16.02;78.41;101553.06;5004322;28;20045;-81
2022/06/10 06:50:27;;;;;;;5.57;3.60;;;;;;;16.09;78.09;101551.19;5020935;28;20145;-80
2022/06/10 06:52:54;;;;;;;9.13;3.40;;;;;;;16.22;77.17;101551.81;5003100;28;20080;-79
2022/06/10 06:55:21;;;;;;;31.77;8.07;;;;;;;16.33;76.62;101557.75;5025174;28;20049;-79
2022/06/10 06:57:49;;;;;;;7.63;4.45;;;;;;;16.42;76.11;101555.88;5021030;28;20037;-81
2022/06/10 07:00:18;;;;;;;7.72;4.93;;;;;;;16.46;75.90;101561.06;5034167;28;20057;-79
2022/06/10 07:02:44;;;;;;;10.80;4.10;;;;;;;16.49;76.16;101558.38;5022094;28;20041;-80
2022/06/10 07:05:12;;;;;;;3.45;3.13;;;;;;;16.55;73.59;101554.72;5002556;28;20056;-81
2022/06/10 07:07:41;;;;;;;6.72;3.15;;;;;;;16.61;73.96;101559.00;5021664;28;20045;-79
2022/06/10 07:10:13;;;;;;;5.60;2.70;;;;;;;16.71;70.36;101555.28;5003115;28;20058;-80
2022/06/10 07:12:39;;;;;;;3.97;2.28;;;;;;;16.77;68.66;101556.97;5014468;28;20053;-80
2022/06/10 07:15:07;;;;;;;7.05;3.30;;;;;;;16.89;69.05;101567.25;5017836;28;20143;-80
2022/06/10 07:17:33;;;;;;;5.85;2.80;;;;;;;17.03;68.30;101567.03;5024149;28;20045;-82
2022/06/10 07:20:02;;;;;;;3.65;2.47;;;;;;;17.19;67.51;101568.44;4995864;28;20175;-81
2022/06/10 07:22:28;;;;;;;4.82;2.35;;;;;;;17.44;66.61;101572.28;5017045;28;20046;-81
2022/06/10 07:24:55;;;;;;;6.35;2.92;;;;;;;17.74;64.08;101568.03;5018856;28;20052;-80
2022/06/10 07:27:22;;;;;;;3.97;1.90;;;;;;;18.05;63.46;101562.03;5001204;28;20049;-80
2022/06/10 07:29:51;;;;;;;4.57;2.75;;;;;;;18.56;61.95;101567.75;5019606;28;20052;-80
2022/06/10 07:32:18;;;;;;;6.35;2.38;;;;;;;19.21;60.93;101568.56;5009424;28;20049;-80
2022/06/10 07:34:45;;;;;;;6.88;2.50;;;;;;;19.99;57.04;101563.41;5003010;28;20064;-79
2022/06/10 07:37:11;;;;;;;3.92;1.60;;;;;;;20.56;54.52;101557.91;5031327;28;20069;-82
2022/06/10 07:39:38;;;;;;;3.65;0.93;;;;;;;21.12;54.19;101553.19;5012893;28;20144;-81
2022/06/10 07:42:05;;;;;;;1.90;0.90;;;;;;;21.70;51.64;101552.66;5015701;28;20069;-83
2022/06/10 07:44:36;;;;;;;2.90;1.52;;;;;;;22.12;48.91;101561.56;5017469;28;20072;-82
2022/06/10 07:47:11;;;;;;;3.20;1.40;;;;;;;22.45;48.98;101558.41;5001041;28;20057;-81
2022/06/10 07:49:38;;;;;;;3.67;1.90;;;;;;;22.88;47.74;101552.91;5015944;28;20127;-81
2022/06/10 07:52:07;;;;;;;4.70;1.27;;;;;;;22.74;45.55;101558.91;5014207;28;20053;-80
2022/06/10 07:54:34;;;;;;;3.13;1.15;;;;;;;22.45;44.96;101556.59;5025297;28;20809;-81
2022/06/10 07:57:05;;;;;;;4.38;1.40;;;;;;;22.53;44.26;101558.03;5016921;28;20057;-83
2022/06/10 07:59:33;;;;;;;8.73;1.98;;;;;;;23.08;42.37;101568.88;5000710;28;20137;-81
2022/06/10 08:02:00;;;;;;;3.42;1.70;;;;;;;23.24;43.66;101560.16;5016978;28;20120;-82
2022/06/10 08:04:27;;;;;;;4.38;1.92;;;;;;;23.78;42.91;101550.38;5017307;28;20049;-81
2022/06/10 08:06:54;;;;;;;6.88;2.30;;;;;;;24.12;40.14;101553.19;5023632;28;20137;-82
2022/06/10 08:09:22;;;;;;;6.80;2.88;;;;;;;23.94;40.34;101550.47;5006191;28;20061;-81
2022/06/10 08:11:51;;;;;;;6.18;2.30;;;;;;;23.83;41.06;101550.16;4999827;28;20459;-81
2022/06/10 08:14:18;;;;;;;12.45;3.05;;;;;;;24.13;40.93;101554.03;4997684;28;20057;-81
2022/06/10 08:16:45;;;;;;;8.70;4.45;;;;;;;24.40;40.70;101557.06;4999435;28;20176;-81
2022/06/10 08:19:12;;;;;;;7.68;3.22;;;;;;;24.81;40.68;101545.09;4999539;28;20467;-83
2022/06/10 08:24:23;;;;;;;11.50;3.22;;;;;;;25.70;38.59;101542.75;5021571;28;20049;-82
2022/06/10 08:26:50;;;;;;;8.05;3.95;;;;;;;25.69;38.27;101542.84;4996268;28;20135;-81
2022/06/10 08:29:17;;;;;;;5.60;3.40;;;;;;;24.79;39.80;101547.88;4999022;28;20802;-81
2022/06/10 08:31:44;;;;;;;7.90;3.97;;;;;;;24.01;41.39;101543.00;5014059;28;20045;-83
2022/06/10 08:34:11;;;;;;;6.28;3.42;;;;;;;23.38;42.52;101547.00;5002566;28;20255;-81
2022/06/10 08:36:38;;;;;;;5.15;3.45;;;;;;;22.84;44.05;101548.66;5012144;28;20045;-80
2022/06/10 08:39:05;;;;;;;4.95;2.70;;;;;;;22.61;45.50;101547.91;4998283;28;20041;-82
2022/06/10 08:41:52;;;;;;;6.53;2.95;;;;;;;23.34;44.21;101547.25;5017232;28;20049;-82
2022/06/10 08:44:55;;;;;;;6.97;2.45;;;;;;;23.68;43.19;101546.44;5014706;28;20045;-80
2022/06/10 08:48:08;;;;;;;6.50;3.42;;;;;;;23.84;41.83;101541.16;5013295;28;20290;-81
2022/06/10 08:51:16;;;;;;;7.35;3.38;;;;;;;24.04;42.03;101533.97;5025383;28;20054;-83
2022/06/10 08:54:26;;;;;;;8.15;2.83;;;;;;;24.20;42.60;101537.56;5016818;28;20048;-80
2022/06/10 08:56:59;;;;;;;6.35;2.45;;;;;;;24.56;41.65;101541.03;4938673;28;20054;-81
2022/06/10 08:59:38;;;;;;;;;;;;;;;24.93;40.70;101553.31;4940694;28;20047;-80
2022/06/10 09:02:29;;;;;;;4.07;2.10;;;;;;;25.91;40.14;101540.63;4993016;28;19933;-84
2022/06/10 09:05:20;;;;;;;6.40;2.25;;;;;;;26.86;37.95;101543.81;5018080;28;20451;-83
2022/06/10 09:08:01;;;;;;;7.00;2.00;;;;;;;27.14;36.80;101528.59;5021098;28;20762;-82
2022/06/10 09:10:53;;;;;;;6.45;2.40;;;;;;;28.02;34.38;101536.22;5019474;28;20049;-82
2022/06/10 09:13:39;;;;;;;3.95;2.15;;;;;;;27.91;33.22;101536.06;5035156;28;20061;-80
2022/06/10 09:16:57;;;;;;;3.00;2.00;;;;;;;27.48;34.67;101538.97;5023156;28;20049;-81
2022/06/10 09:19:48;;;;;;;5.55;2.00;;;;;;;27.78;34.41;101536.03;5010133;28;20081;-83
2022/06/10 09:22:59;;;;;;;5.95;1.83;;;;;;;28.71;33.18;101535.06;5001569;28;20075;-82
2022/06/10 09:25:52;;;;;;;5.32;2.22;;;;;;;29.46;31.99;101531.38;4945490;28;20072;-82
2022/06/10 09:28:19;;;;;;;5.97;2.58;;;;;;;29.36;32.04;101528.53;4929281;28;20055;-80
2022/06/10 09:30:56;;;;;;;5.18;2.72;;;;;;;28.78;33.50;101536.34;4999715;28;20045;-81
2022/06/10 09:33:39;;;;;;;5.53;2.58;;;;;;;27.62;34.47;101536.22;5001689;28;20304;-81
2022/06/10 09:36:27;;;;;;;6.63;1.75;;;;;;;26.07;36.36;101535.25;5015249;28;20092;-81
2022/06/10 09:40:35;;;;;;;10.07;2.67;;;;;;;24.02;38.99;101534.03;5036718;28;20049;-81
2022/06/10 09:42:21;;;;;;;5.38;1.70;;;;;;;24.60;39.04;101547.97;5035899;28;20316;-82
2022/06/10 09:45:02;;;;;;;5.88;1.73;;;;;;;26.01;36.44;101548.97;5020740;28;20548;-82
2022/06/10 09:47:55;;;;;;;7.95;1.70;;;;;;;27.32;33.41;101544.47;5007820;28;20099;-80
2022/06/10 09:50:37;;;;;;;4.82;2.15;;;;;;;27.62;33.00;101543.44;5020415;28;20128;-82
2022/06/10 09:53:39;;;;;;;6.00;2.28;;;;;;;27.05;34.24;101550.69;5019352;28;20515;-83
2022/06/10 09:56:24;;;;;;;6.20;1.95;;;;;;;26.90;33.96;101537.28;5021216;28;20049;-82
2022/06/10 09:59:23;;;;;;;2.72;1.15;;;;;;;26.28;35.29;101534.88;5033186;28;20274;-81
2022/06/10 10:02:22;;;;;;;6.00;1.98;;;;;;;25.89;35.92;101536.28;5016479;28;20049;-81
2022/06/10 10:05:23;;;;;;;3.15;1.33;;;;;;;25.82;35.51;101533.13;5014788;28;20045;-83
2022/06/10 10:07:54;;;;;;;4.45;0.93;;;;;;;25.28;36.43;101525.50;5018829;28;20061;-81
2022/06/10 10:10:45;;;;;;;3.03;1.02;;;;;;;25.89;35.70;101536.28;5017452;28;20038;-80
2022/06/10 10:14:13;;;;;;;3.55;1.38;;;;;;;26.38;34.17;101519.06;5019935;28;20049;-82
2022/06/10 10:17:24;;;;;;;3.97;2.10;;;;;;;26.06;34.99;101527.25;5017304;28;20107;-81
2022/06/10 10:20:18;;;;;;;4.63;1.30;;;;;;;26.49;33.85;101527.31;5016685;28;20045;-80
2022/06/10 10:23:13;;;;;;;2.17;1.20;;;;;;;25.80;35.35;101534.16;5018494;28;20121;-82
2022/06/10 10:25:43;;;;;;;4.18;0.90;;;;;;;25.77;34.39;101527.16;5025636;28;20048;-81
2022/06/10 10:28:20;;;;;;;2.20;1.02;;;;;;;25.11;35.59;101529.16;5002189;28;20050;-83
2022/06/10 10:31:00;;;;;;;3.40;1.20;;;;;;;24.82;36.50;101531.63;5035603;28;20057;-81
2022/06/10 10:33:27;;;;;;;3.78;1.48;;;;;;;24.91;36.52;101523.09;5023912;28;20057;-81
2022/06/10 10:35:57;;;;;;;5.32;1.08;;;;;;;24.85;36.75;101520.75;5021567;28;20053;-81
2022/06/10 10:38:42;;;;;;;7.45;1.73;;;;;;;24.22;37.54;101522.31;5002369;28;20701;-82
2022/06/10 10:41:30;;;;;;;7.30;1.65;;;;;;;23.56;38.88;101520.31;5006834;28;20054;-82
2022/06/10 10:44:06;;;;;;;5.18;1.33;;;;;;;22.85;40.78;101527.22;5033343;28;20068;-83
2022/06/10 10:46:56;;;;;;;4.78;1.20;;;;;;;22.65;41.57;101522.81;5006784;28;20050;-83
2022/06/10 10:49:33;;;;;;;5.40;1.95;;;;;;;22.61;41.78;101539.91;5004729;28;20776;-80
2022/06/10 10:52:08;;;;;;;3.72;1.10;;;;;;;22.56;41.74;101533.91;5036316;28;20072;-82
2022/06/10 10:54:38;;;;;;;5.68;1.38;;;;;;;22.22;42.31;101536.25;5006035;28;20049;-82
2022/06/10 10:57:21;;;;;;;3.97;1.30;;;;;;;22.22;42.62;101530.06;5019163;28;20050;-83
2022/06/10 11:00:00;;;;;;;4.05;1.27;;;;;;;22.11;43.10;101536.72;5022380;28;20049;-83
2022/06/10 11:02:42;;;;;;;8.30;2.20;;;;;;;22.03;44.15;101529.97;5014288;28;20144;-82
2022/06/10 11:05:35;;;;;;;5.45;2.22;;;;;;;21.80;45.13;101537.19;5018989;28;20486;-82
2022/06/10 11:08:13;;;;;;;6.18;1.60;;;;;;;21.87;45.22;101543.09;5035722;28;20103;-83
2022/06/10 11:11:22;;;;;;;4.50;1.73;;;;;;;21.91;45.95;101531.38;5015221;28;20050;-80
2022/06/10 11:14:01;;;;;;;8.48;2.08;;;;;;;22.22;44.64;101538.91;5030647;28;20124;-81
2022/06/10 11:16:56;;;;;;;5.60;1.50;;;;;;;22.28;44.56;101543.09;4999806;28;20048;-81
2022/06/10 11:19:37;;;;;;;3.10;1.90;;;;;;;22.57;44.09;101535.66;5012645;28;20056;-82
2022/06/10 11:22:34;;;;;;;9.57;2.45;;;;;;;22.85;43.66;101545.91;4997251;28;20241;-83
2022/06/10 11:25:03;;;;;;;4.18;1.33;;;;;;;23.34;42.67;101545.44;5042061;28;20049;-83
2022/06/10 11:27:33;;;;;;;5.10;1.77;;;;;;;23.98;40.90;101532.47;5018607;28;20088;-81
2022/06/10 11:30:21;;;;;;;8.10;1.55;;;;;;;24.09;41.11;101535.47;5037100;28;20048;-80
2022/06/10 11:32:48;;;;;;;8.32;1.70;;;;;;;24.21;41.09;101531.28;5019691;28;20326;-85
2022/06/10 11:35:29;;;;;;;7.68;1.55;;;;;;;24.61;40.51;101531.84;5038003;28;20049;-86
2022/06/10 11:38:12;;;;;;;6.05;1.90;;;;;;;24.89;40.01;101529.50;5018648;28;20057;-84
2022/06/10 11:40:50;;;;;;;;;;;;;;;25.62;37.47;101520.03;5020329;28;20080;-85
2022/06/10 11:43:27;;;;;;;8.00;1.42;;;;;;;26.57;36.32;101525.00;5036817;28;19931;-83
2022/06/10 11:46:02;;;;;;;4.22;1.10;;;;;;;28.13;34.92;101515.78;5028846;28;20077;-84
2022/06/10 11:48:44;;;;;;;6.97;1.30;;;;;;;29.23;32.36;101516.03;5001979;28;20038;-84
2022/06/10 11:51:21;;;;;;;5.05;1.52;;;;;;;29.26;32.65;101515.81;5017782;28;20064;-84
2022/06/10 11:53:57;;;;;;;5.22;1.23;;;;;;;29.19;31.49;101512.69;5005432;28;20049;-84
2022/06/10 11:59:55;;;;;;;6.13;1.20;;;;;;;29.26;31.85;101513.13;5022078;28;20041;-84
2022/06/10 12:02:45;;;;;;;3.07;1.57;;;;;;;29.62;31.19;101514.03;5033941;28;20056;-82
2022/06/10 12:05:40;;;;;;;3.08;1.02;;;;;;;29.48;31.05;101512.41;5013354;28;20821;-84
2022/06/10 12:08:18;;;;;;;1.92;1.45;;;;;;;29.77;30.39;101509.31;5024054;28;20598;-85
2022/06/10 12:11:15;;;;;;;2.78;1.35;;;;;;;30.79;28.88;101504.88;5025017;28;20065;-86
2022/06/10 12:14:09;;;;;;;2.05;0.77;;;;;;;32.08;27.44;101492.31;5020265;28;21080;-83
2022/06/10 12:16:37;;;;;;;2.35;0.75;;;;;;;33.57;25.69;101496.16;5020444;28;20044;-84
2022/06/10 12:19:14;;;;;;;3.00;0.60;;;;;;;33.85;25.29;101490.00;5023910;28;20033;-84
2022/06/10 12:21:42;;;;;;;3.03;0.70;;;;;;;32.81;25.64;101497.66;5020198;28;20034;-87
2022/06/10 12:24:17;;;;;;;4.45;0.95;;;;;;;32.52;25.29;101504.81;5006424;28;20119;-85